createdAt,value
2023-05-18T00:02:11.792Z,29.52
2023-05-18T00:04:40.972Z,29.56
2023-05-18T00:07:10.353Z,29.54
2023-05-18T00:09:40.221Z,29.56
2023-05-18T00:12:11.118Z,29.56
2023-05-18T00:14:40.257Z,29.57
2023-05-18T00:17:09.540Z,29.57
2023-05-18T00:19:38.720Z,29.59
2023-05-18T00:22:09.147Z,29.60
2023-05-18T00:24:38.335Z,29.63
2023-05-18T00:27:07.511Z,29.64
2023-05-18T00:29:36.719Z,29.64
2023-05-18T00:32:06.301Z,29.64
2023-05-18T00:34:35.526Z,29.67
2023-05-18T00:37:04.886Z,29.67
2023-05-18T00:39:34.052Z,29.69
2023-05-18T00:42:03.678Z,29.70
2023-05-18T00:44:33.182Z,29.70
2023-05-18T00:47:03.326Z,29.71
2023-05-18T00:49:32.481Z,29.71
2023-05-18T00:52:01.963Z,29.73
2023-05-18T00:54:31.153Z,29.74
2023-05-18T00:57:03.405Z,29.74
2023-05-18T00:59:33.902Z,29.73
2023-05-18T01:02:03.284Z,29.76
2023-05-18T01:04:33.010Z,29.76
2023-05-18T01:07:07.717Z,29.76
2023-05-18T01:09:37.394Z,29.77
2023-05-18T01:12:26.586Z,29.78
2023-05-18T01:15:13.648Z,29.80
2023-05-18T01:18:01.878Z,29.81
2023-05-18T01:20:34.761Z,29.81
2023-05-18T01:23:37.358Z,29.81
2023-05-18T01:26:25.850Z,29.84
2023-05-18T01:28:58.382Z,29.82
2023-05-18T01:31:29.056Z,29.84
2023-05-18T01:33:58.368Z,29.88
2023-05-18T01:36:27.615Z,29.91
2023-05-18T01:39:02.664Z,29.91
2023-05-18T01:41:37.528Z,29.98
2023-05-18T01:44:24.843Z,30.02
2023-05-18T01:46:59.765Z,30.10
2023-05-18T01:49:32.471Z,30.12
2023-05-18T01:52:08.847Z,30.18
2023-05-18T01:54:44.779Z,30.22
2023-05-18T01:57:14.898Z,30.27
2023-05-18T01:59:45.119Z,30.31
2023-05-18T02:02:14.428Z,30.31
2023-05-18T02:04:43.626Z,30.35
2023-05-18T02:07:13.018Z,30.42
2023-05-18T02:09:42.913Z,30.70
2023-05-18T02:12:13.449Z,31.50
2023-05-18T02:14:43.126Z,32.33
2023-05-18T02:17:13.599Z,33.03
2023-05-18T02:19:44.615Z,33.61
2023-05-18T02:22:14.384Z,34.14
2023-05-18T02:24:43.809Z,34.57
2023-05-18T02:27:13.327Z,34.85
2023-05-18T02:29:42.944Z,35.16
2023-05-18T02:32:12.496Z,35.38
2023-05-18T02:34:43.528Z,35.60
2023-05-18T02:37:14.788Z,35.80
2023-05-18T02:39:44.318Z,35.97
2023-05-18T02:42:14.958Z,36.13
2023-05-18T02:44:45.253Z,36.23
2023-05-18T02:47:14.768Z,36.31
2023-05-18T02:49:44.196Z,36.44
2023-05-18T02:52:13.474Z,36.58
2023-05-18T02:54:42.771Z,36.71
2023-05-18T02:57:13.240Z,36.71
2023-05-18T02:59:43.340Z,36.72
2023-05-18T03:02:15.590Z,36.71
2023-05-18T03:04:45.821Z,36.78
2023-05-18T03:07:16.290Z,36.81
2023-05-18T03:09:46.332Z,36.91
2023-05-18T03:12:17.087Z,37.02
2023-05-18T03:14:46.540Z,37.10
2023-05-18T03:17:16.345Z,37.19
2023-05-18T03:19:46.028Z,37.36
2023-05-18T03:22:15.558Z,37.49
2023-05-18T03:24:46.097Z,37.70
2023-05-18T03:27:18.671Z,37.84
2023-05-18T03:29:48.258Z,37.97
2023-05-18T03:32:17.792Z,38.02
2023-05-18T03:34:50.861Z,38.09
2023-05-18T03:39:47.911Z,38.19
2023-05-18T03:42:17.440Z,38.21
2023-05-18T03:44:47.955Z,38.27
2023-05-18T03:47:17.394Z,38.27
2023-05-18T03:49:47.152Z,38.36
2023-05-18T03:52:23.473Z,38.45
2023-05-18T03:54:53.288Z,38.44
2023-05-18T03:57:22.578Z,38.46
2023-05-18T03:59:55.338Z,38.51
2023-05-18T04:02:25.323Z,38.49
2023-05-18T04:04:55.434Z,38.56
2023-05-18T04:09:59.265Z,38.66
2023-05-18T04:12:28.903Z,38.60
2023-05-18T04:14:58.391Z,38.62
2023-05-18T04:17:28.001Z,38.51
2023-05-18T04:19:57.578Z,38.46
2023-05-18T04:22:32.619Z,38.55
2023-05-18T04:25:03.022Z,38.60
2023-05-18T04:27:33.024Z,38.68
2023-05-18T04:30:02.749Z,38.75
2023-05-18T04:32:37.562Z,38.73
2023-05-18T04:35:09.384Z,38.82
2023-05-18T04:37:44.048Z,38.93
2023-05-18T04:40:14.992Z,38.96
2023-05-18T04:42:49.250Z,39.00
2023-05-18T04:45:20.864Z,39.02
2023-05-18T04:47:54.771Z,38.93
2023-05-18T04:50:25.406Z,38.90
2023-05-18T04:52:59.065Z,39.00
2023-05-18T04:55:29.395Z,39.03
2023-05-18T04:58:02.588Z,39.11
2023-05-18T05:00:32.617Z,39.16
2023-05-18T05:03:01.988Z,39.28
2023-05-18T05:05:32.026Z,39.37
2023-05-18T05:08:01.520Z,39.43
2023-05-18T05:10:30.764Z,39.50
2023-05-18T05:13:00.178Z,39.60
2023-05-18T05:15:29.850Z,39.65
2023-05-18T05:18:01.138Z,39.62
2023-05-18T05:20:30.433Z,39.65
2023-05-18T05:23:00.092Z,39.65
2023-05-18T05:25:29.733Z,39.65
2023-05-18T05:27:59.462Z,39.58
2023-05-18T05:30:29.633Z,39.40
2023-05-18T05:32:59.356Z,39.53
2023-05-18T05:35:29.989Z,39.53
2023-05-18T05:38:00.979Z,39.57
2023-05-18T05:40:30.462Z,39.61
2023-05-18T05:42:59.853Z,39.55
2023-05-18T05:45:30.260Z,39.53
2023-05-18T05:47:59.786Z,39.55
2023-05-18T05:50:29.989Z,39.58
2023-05-18T05:52:59.260Z,39.51
2023-05-18T05:55:29.098Z,39.46
2023-05-18T05:57:58.660Z,39.37
2023-05-18T06:00:29.940Z,39.28
2023-05-18T06:03:00.191Z,39.21
2023-05-18T06:05:29.858Z,39.14
2023-05-18T06:08:00.041Z,39.09
2023-05-18T06:10:29.739Z,39.06
2023-05-18T06:12:59.916Z,39.07
2023-05-18T06:15:29.619Z,39.09
2023-05-18T06:17:59.203Z,39.20
2023-05-18T06:20:28.755Z,39.27
2023-05-18T06:22:59.126Z,39.36
2023-05-18T06:25:29.187Z,39.37
2023-05-18T06:27:58.708Z,39.54
2023-05-18T06:30:27.975Z,39.67
2023-05-18T06:32:57.813Z,39.75
2023-05-18T06:35:27.350Z,39.81
2023-05-18T06:37:56.971Z,39.91
2023-05-18T06:40:26.109Z,40.06
2023-05-18T06:42:55.420Z,40.13
2023-05-18T06:45:24.912Z,40.25
2023-05-18T06:47:54.426Z,40.35
2023-05-18T06:50:24.319Z,40.46
2023-05-18T06:52:53.940Z,40.53
2023-05-18T06:55:23.647Z,40.40
2023-05-18T06:57:54.183Z,40.43
2023-05-18T07:00:23.673Z,40.47
2023-05-18T07:02:53.029Z,40.50
2023-05-18T07:05:23.140Z,40.57
2023-05-18T07:07:52.985Z,40.59
2023-05-18T07:10:23.834Z,40.60
2023-05-18T07:12:53.349Z,40.68
2023-05-18T07:15:23.186Z,40.74
2023-05-18T07:17:52.568Z,40.79
2023-05-18T07:20:23.639Z,40.76
2023-05-18T07:22:57.121Z,40.82
2023-05-18T07:25:27.655Z,40.76
2023-05-18T07:27:58.028Z,40.74
2023-05-18T07:30:27.872Z,40.73
2023-05-18T07:32:58.135Z,40.57
2023-05-18T07:35:28.282Z,40.54
2023-05-18T07:37:58.016Z,40.53
2023-05-18T07:40:27.517Z,40.29
2023-05-18T07:42:56.925Z,39.95
2023-05-18T07:45:26.415Z,39.67
2023-05-18T07:47:56.300Z,39.57
2023-05-18T07:50:25.839Z,39.57
2023-05-18T07:52:55.233Z,39.67
2023-05-18T07:55:24.510Z,39.82
2023-05-18T07:57:54.056Z,39.89
2023-05-18T08:00:23.310Z,40.02
2023-05-18T08:02:53.095Z,40.11
2023-05-18T08:05:23.876Z,40.20
2023-05-18T08:07:53.339Z,40.26
2023-05-18T08:10:22.809Z,40.26
2023-05-18T08:12:52.176Z,40.23
2023-05-18T08:15:21.503Z,40.08
2023-05-18T08:17:50.866Z,39.95
2023-05-18T08:20:20.324Z,39.88
2023-05-18T08:22:49.862Z,39.82
2023-05-18T08:25:19.643Z,39.82
2023-05-18T08:27:49.204Z,39.77
2023-05-18T08:30:22.759Z,39.60
2023-05-18T08:32:53.066Z,39.51
2023-05-18T08:35:22.629Z,39.33
2023-05-18T08:37:52.347Z,39.21
2023-05-18T08:40:22.340Z,39.07
2023-05-18T08:42:53.797Z,38.92
2023-05-18T08:45:33.200Z,38.72
2023-05-18T08:48:04.874Z,38.52
2023-05-18T08:50:36.610Z,38.33
2023-05-18T08:53:08.981Z,38.12
2023-05-18T08:55:39.616Z,37.91
2023-05-18T08:58:13.212Z,37.70
2023-05-18T09:00:43.353Z,37.53
2023-05-18T09:03:13.721Z,37.40
2023-05-18T09:05:43.517Z,37.23
2023-05-18T09:08:14.883Z,37.09
2023-05-18T09:10:44.434Z,36.91
2023-05-18T09:13:16.950Z,36.75
2023-05-18T09:15:46.513Z,36.60
2023-05-18T09:18:15.984Z,36.47
2023-05-18T09:20:45.660Z,36.32
2023-05-18T09:23:15.703Z,36.23
2023-05-18T09:25:51.176Z,36.11
2023-05-18T09:28:43.325Z,36.03
2023-05-18T09:31:21.270Z,35.96
2023-05-18T09:33:52.876Z,35.89
2023-05-18T09:36:27.763Z,35.82
2023-05-18T09:38:57.181Z,35.74
2023-05-18T09:41:29.592Z,35.69
2023-05-18T09:43:59.166Z,35.62
2023-05-18T09:46:34.101Z,35.54
2023-05-18T09:49:05.392Z,35.43
2023-05-18T09:51:42.211Z,35.33
2023-05-18T09:54:12.110Z,35.23
2023-05-18T09:56:41.451Z,35.14
2023-05-18T09:59:16.297Z,35.05
2023-05-18T10:02:14.590Z,35.01
2023-05-18T10:04:45.991Z,34.95
2023-05-18T10:07:17.893Z,34.92
2023-05-18T10:09:48.444Z,34.87
2023-05-18T10:12:21.094Z,34.84
2023-05-18T10:14:51.624Z,34.80
2023-05-18T10:17:23.273Z,34.77
2023-05-18T10:19:57.536Z,34.71
2023-05-18T10:22:29.685Z,34.67
2023-05-18T10:25:02.673Z,34.60
2023-05-18T10:27:36.032Z,34.55
2023-05-18T10:30:09.360Z,34.47
2023-05-18T10:32:40.607Z,34.17
2023-05-18T10:35:11.557Z,33.89
2023-05-18T10:37:45.036Z,33.61
2023-05-18T10:40:16.954Z,33.32
2023-05-18T10:42:48.433Z,33.08
2023-05-18T10:45:17.837Z,32.88
2023-05-18T10:47:47.170Z,32.73
2023-05-18T10:50:18.277Z,32.59
2023-05-18T10:52:50.756Z,32.44
2023-05-18T10:55:20.357Z,32.35
2023-05-18T10:58:03.945Z,32.25
2023-05-18T11:00:38.319Z,32.16
2023-05-18T11:03:15.518Z,32.09
2023-05-18T11:05:45.127Z,32.05
2023-05-18T11:08:16.349Z,31.99
2023-05-18T11:10:50.332Z,31.93
2023-05-18T11:13:21.181Z,31.91
2023-05-18T11:15:56.709Z,31.84
2023-05-18T11:18:37.822Z,31.82
2023-05-18T11:21:33.269Z,31.79
2023-05-18T11:24:27.265Z,31.72
2023-05-18T11:27:09.745Z,31.71
2023-05-18T11:29:41.891Z,31.72
2023-05-18T11:32:33.411Z,31.68
2023-05-18T11:35:02.644Z,31.65
2023-05-18T11:37:40.970Z,31.64
2023-05-18T11:40:17.503Z,31.61
2023-05-18T11:43:00.684Z,31.61
2023-05-18T11:45:30.150Z,31.58
2023-05-18T11:48:04.798Z,31.57
2023-05-18T11:50:34.271Z,31.54
2023-05-18T11:53:03.955Z,31.54
2023-05-18T11:55:40.413Z,31.52
2023-05-18T11:58:11.630Z,31.54
2023-05-18T12:00:42.238Z,31.50
2023-05-18T12:03:12.089Z,31.50
2023-05-18T12:05:50.586Z,31.47
2023-05-18T12:08:30.382Z,31.47
2023-05-18T12:11:00.674Z,31.50
2023-05-18T12:13:30.489Z,31.45
2023-05-18T12:15:59.863Z,31.45
2023-05-18T12:18:31.225Z,31.44
2023-05-18T12:21:00.495Z,31.45
2023-05-18T12:23:42.248Z,31.42
2023-05-18T12:26:11.384Z,31.42
2023-05-18T12:28:40.861Z,31.41
2023-05-18T12:31:10.391Z,31.41
2023-05-18T12:33:39.662Z,31.40
2023-05-18T12:36:12.969Z,31.38
2023-05-18T12:38:42.641Z,31.37
2023-05-18T12:41:11.872Z,31.38
2023-05-18T12:43:41.721Z,31.38
2023-05-18T12:46:10.894Z,31.35
2023-05-18T12:48:48.302Z,31.37
2023-05-18T12:51:22.325Z,31.37
2023-05-18T12:53:52.736Z,31.38
2023-05-18T12:56:22.079Z,31.37
2023-05-18T12:59:19.152Z,31.35
2023-05-18T13:01:48.731Z,31.34
2023-05-18T13:04:18.039Z,31.33
2023-05-18T13:06:47.913Z,31.33
2023-05-18T13:09:18.328Z,31.31
2023-05-18T13:12:06.128Z,31.34
2023-05-18T13:14:40.697Z,31.34
2023-05-18T13:17:09.916Z,31.31
2023-05-18T13:19:39.167Z,31.33
2023-05-18T13:22:09.580Z,31.33
2023-05-18T13:24:40.281Z,31.30
2023-05-18T13:27:09.420Z,31.29
2023-05-18T13:29:38.651Z,31.29
2023-05-18T13:32:08.179Z,31.29
2023-05-18T13:34:37.377Z,31.29
2023-05-18T13:37:06.808Z,31.24
2023-05-18T13:39:35.897Z,31.27
2023-05-18T13:42:04.949Z,31.24
2023-05-18T13:44:34.207Z,31.24
2023-05-18T13:47:03.504Z,31.26
2023-05-18T13:49:32.681Z,31.23
2023-05-18T13:52:01.961Z,31.26
2023-05-18T13:54:31.152Z,31.20
2023-05-18T13:57:00.352Z,31.23
2023-05-18T13:59:29.638Z,31.24
2023-05-18T14:01:58.870Z,31.21
2023-05-18T14:04:28.043Z,31.20
2023-05-18T14:06:57.279Z,31.21
2023-05-18T14:09:32.317Z,31.19
2023-05-18T14:12:01.591Z,31.20
2023-05-18T14:14:30.742Z,31.19
2023-05-18T14:16:59.940Z,31.19
2023-05-18T14:19:29.309Z,31.17
2023-05-18T14:21:58.548Z,31.16
2023-05-18T14:24:27.733Z,31.19
2023-05-18T14:26:57.098Z,31.17
2023-05-18T14:29:26.453Z,31.16
2023-05-18T14:31:55.742Z,31.17
2023-05-18T14:34:25.016Z,31.16
2023-05-18T14:36:54.473Z,31.16
2023-05-18T14:39:23.611Z,31.17
2023-05-18T14:41:52.742Z,31.16
2023-05-18T14:44:21.910Z,31.14
2023-05-18T14:46:51.194Z,31.11
2023-05-18T14:49:20.468Z,31.11
2023-05-18T14:51:49.951Z,31.14
2023-05-18T14:54:20.232Z,31.13
2023-05-18T14:56:49.632Z,31.13
2023-05-18T14:59:18.918Z,31.11
2023-05-18T15:01:48.262Z,31.11
2023-05-18T15:04:18.559Z,31.10
2023-05-18T15:06:48.384Z,31.10
2023-05-18T15:09:17.666Z,31.07
2023-05-18T15:11:47.774Z,31.07
2023-05-18T15:14:17.050Z,31.10
2023-05-18T15:16:46.507Z,31.10
2023-05-18T15:19:15.812Z,31.09
2023-05-18T15:21:46.093Z,31.09
2023-05-18T15:24:15.213Z,31.07
2023-05-18T15:26:44.806Z,31.07
2023-05-18T15:29:14.129Z,31.07
2023-05-18T15:31:43.321Z,31.07
2023-05-18T15:34:12.478Z,31.04
2023-05-18T15:36:41.916Z,31.06
2023-05-18T15:39:11.043Z,31.06
2023-05-18T15:41:40.464Z,31.06
2023-05-18T15:44:09.655Z,31.04
2023-05-18T15:46:39.070Z,31.04
2023-05-18T15:49:08.186Z,31.04
2023-05-18T15:51:37.356Z,31.04
2023-05-18T15:54:06.509Z,31.03
2023-05-18T15:56:35.808Z,31.03
2023-05-18T15:59:04.961Z,31.03
2023-05-18T16:01:34.275Z,31.04
2023-05-18T16:04:04.192Z,31.01
2023-05-18T16:06:34.304Z,31.03
2023-05-18T16:09:03.623Z,31.00
2023-05-18T16:11:32.883Z,30.99
2023-05-18T16:14:02.027Z,31.03
2023-05-18T16:16:31.519Z,31.01
2023-05-18T16:19:01.961Z,31.00
2023-05-18T16:21:31.286Z,31.00
2023-05-18T16:24:00.467Z,31.03
2023-05-18T16:26:29.736Z,30.99
2023-05-18T16:28:59.003Z,30.99
2023-05-18T16:31:28.148Z,31.01
2023-05-18T16:33:57.939Z,30.97
2023-05-18T16:36:27.480Z,30.99
2023-05-18T16:38:57.038Z,30.97
2023-05-18T16:41:26.357Z,30.99
2023-05-18T16:43:55.603Z,31.00
2023-05-18T16:46:25.721Z,30.96
2023-05-18T16:48:55.016Z,30.96
2023-05-18T16:51:25.888Z,30.94
2023-05-18T16:53:56.842Z,30.97
2023-05-18T16:56:26.462Z,30.94
2023-05-18T16:58:55.481Z,30.97
2023-05-18T17:01:28.434Z,30.96
2023-05-18T17:03:58.717Z,30.93
2023-05-18T17:06:28.294Z,30.90
2023-05-18T17:09:00.350Z,30.96
2023-05-18T17:11:29.584Z,30.94
2023-05-18T17:14:00.942Z,30.91
2023-05-18T17:16:31.273Z,30.91
2023-05-18T17:19:00.469Z,30.89
2023-05-18T17:21:31.872Z,30.90
2023-05-18T17:24:01.239Z,30.89
2023-05-18T17:26:34.469Z,30.89
2023-05-18T17:29:03.795Z,30.89
2023-05-18T17:31:32.902Z,30.87
2023-05-18T17:34:02.176Z,30.86
2023-05-18T17:36:32.165Z,30.86
2023-05-18T17:39:01.283Z,30.86
2023-05-18T17:41:30.541Z,30.86
2023-05-18T17:43:59.687Z,30.86
2023-05-18T17:46:28.974Z,30.83
2023-05-18T17:48:58.339Z,30.82
2023-05-18T17:51:27.887Z,30.79
2023-05-18T17:53:57.725Z,30.80
2023-05-18T17:56:28.673Z,30.79
2023-05-18T17:58:59.797Z,30.78
2023-05-18T18:01:30.213Z,30.79
2023-05-18T18:03:59.601Z,30.80
2023-05-18T18:06:29.151Z,30.76
2023-05-18T18:08:59.939Z,30.78
2023-05-18T18:11:29.442Z,30.75
2023-05-18T18:13:58.578Z,30.73
2023-05-18T18:16:27.894Z,30.78
2023-05-18T18:18:57.926Z,30.75
2023-05-18T18:21:27.033Z,30.72
2023-05-18T18:23:56.219Z,30.72
2023-05-18T18:26:25.544Z,30.70
2023-05-18T18:28:54.865Z,30.70
2023-05-18T18:31:24.059Z,30.69
2023-05-18T18:33:53.385Z,30.70
2023-05-18T18:36:23.763Z,30.68
2023-05-18T18:38:54.800Z,30.68
2023-05-18T18:41:24.213Z,30.66
2023-05-18T18:43:55.218Z,30.66
2023-05-18T18:46:24.650Z,30.63
2023-05-18T18:48:53.905Z,30.62
2023-05-18T18:51:23.511Z,30.63
2023-05-18T18:53:52.940Z,30.60
2023-05-18T18:56:24.259Z,30.63
2023-05-18T18:58:53.782Z,30.62
2023-05-18T19:01:23.043Z,30.62
2023-05-18T19:03:54.110Z,30.59
2023-05-18T19:06:24.376Z,30.60
2023-05-18T19:08:54.826Z,30.59
2023-05-18T19:11:25.157Z,30.60
2023-05-18T19:13:54.621Z,30.58
2023-05-18T19:16:24.305Z,30.59
2023-05-18T19:18:53.621Z,30.58
2023-05-18T19:21:22.895Z,30.55
2023-05-18T19:23:52.359Z,30.56
2023-05-18T19:26:22.901Z,30.55
2023-05-18T19:28:52.430Z,30.55
2023-05-18T19:31:21.727Z,30.55
2023-05-18T19:33:51.578Z,30.52
2023-05-18T19:36:21.330Z,30.52
2023-05-18T19:38:54.051Z,30.52
2023-05-18T19:41:24.830Z,30.49
2023-05-18T19:43:54.174Z,30.49
2023-05-18T19:46:24.101Z,30.51
2023-05-18T19:48:55.572Z,30.49
2023-05-18T19:51:26.043Z,30.51
2023-05-18T19:53:55.350Z,30.49
2023-05-18T19:56:24.578Z,30.48
2023-05-18T19:58:53.864Z,30.49
2023-05-18T20:01:26.086Z,30.46
2023-05-18T20:03:58.052Z,30.48
2023-05-18T20:06:28.816Z,30.46
2023-05-18T20:08:58.125Z,30.45
2023-05-18T20:11:27.643Z,30.45
2023-05-18T20:13:56.941Z,30.43
2023-05-18T20:16:30.317Z,30.45
2023-05-18T20:19:00.882Z,30.43
2023-05-18T20:21:30.051Z,30.42
2023-05-18T20:23:59.352Z,30.42
2023-05-18T20:26:31.862Z,30.42
2023-05-18T20:29:01.255Z,30.41
2023-05-18T20:31:30.471Z,30.41
2023-05-18T20:33:59.598Z,30.38
2023-05-18T20:36:28.989Z,30.39
2023-05-18T20:38:58.485Z,30.38
2023-05-18T20:41:29.517Z,30.38
2023-05-18T20:44:03.101Z,30.38
2023-05-18T20:46:35.022Z,30.39
2023-05-18T20:49:05.433Z,30.36
2023-05-18T20:51:35.524Z,30.35
2023-05-18T20:54:04.777Z,30.36
2023-05-18T20:56:33.917Z,30.35
2023-05-18T20:59:05.576Z,30.35
2023-05-18T21:01:40.273Z,30.33
2023-05-18T21:04:12.024Z,30.31
2023-05-18T21:06:45.196Z,30.33
2023-05-18T21:09:14.357Z,30.33
2023-05-18T21:11:43.725Z,30.31
2023-05-18T21:14:12.948Z,30.31
2023-05-18T21:16:42.313Z,30.29
2023-05-18T21:19:11.871Z,30.28
2023-05-18T21:21:41.083Z,30.28
2023-05-18T21:24:10.561Z,30.28
2023-05-18T21:26:39.762Z,30.28
2023-05-18T21:29:11.328Z,30.27
2023-05-18T21:31:40.781Z,30.27
2023-05-18T21:34:10.421Z,30.25
2023-05-18T21:36:39.690Z,30.22
2023-05-18T21:39:10.703Z,30.25
2023-05-18T21:41:43.718Z,30.25
2023-05-18T21:44:13.387Z,30.24
2023-05-18T21:46:43.130Z,30.22
2023-05-18T21:49:13.679Z,30.21
2023-05-18T21:51:43.190Z,30.22
2023-05-18T21:54:12.904Z,30.20
2023-05-18T21:56:42.193Z,30.21
2023-05-18T21:59:11.425Z,30.20
2023-05-18T22:01:40.988Z,30.17
2023-05-18T22:04:10.343Z,30.17
2023-05-18T22:06:39.718Z,30.14
2023-05-18T22:09:09.025Z,30.12
2023-05-18T22:11:38.813Z,30.14
2023-05-18T22:14:08.087Z,30.11
2023-05-18T22:16:37.390Z,30.11
2023-05-18T22:19:06.549Z,30.11
2023-05-18T22:21:35.989Z,30.11
2023-05-18T22:24:05.357Z,30.11
2023-05-18T22:26:34.617Z,30.10
2023-05-18T22:29:04.114Z,30.08
2023-05-18T22:31:33.953Z,30.07
2023-05-18T22:34:03.122Z,30.10
2023-05-18T22:36:33.494Z,30.05
2023-05-18T22:39:02.976Z,30.07
2023-05-18T22:41:32.153Z,30.05
2023-05-18T22:44:01.324Z,30.05
2023-05-18T22:46:30.814Z,30.05
2023-05-18T22:49:00.383Z,30.04
2023-05-18T22:51:29.690Z,30.02
2023-05-18T22:53:59.301Z,30.01
2023-05-18T22:56:28.724Z,30.01
2023-05-18T22:58:57.836Z,30.01
2023-05-18T23:01:27.119Z,29.97
2023-05-18T23:03:56.540Z,30.00
2023-05-18T23:06:25.844Z,29.98
2023-05-18T23:08:56.451Z,29.98
2023-05-18T23:11:26.784Z,29.97
2023-05-18T23:13:56.125Z,30.00
2023-05-18T23:16:27.829Z,29.98
2023-05-18T23:18:59.958Z,29.97
2023-05-18T23:21:29.458Z,30.00
2023-05-18T23:23:58.760Z,29.97
2023-05-18T23:26:28.276Z,29.97
2023-05-18T23:28:57.601Z,29.97
2023-05-18T23:31:27.297Z,29.97
2023-05-18T23:33:56.959Z,29.97
2023-05-18T23:36:31.661Z,29.96
2023-05-18T23:39:01.525Z,29.97
2023-05-18T23:41:33.374Z,29.98
2023-05-18T23:44:03.034Z,29.98
2023-05-18T23:46:33.177Z,29.98
2023-05-18T23:49:02.793Z,30.00
2023-05-18T23:51:37.555Z,29.98
2023-05-18T23:54:10.864Z,30.02
2023-05-18T23:56:40.454Z,30.01
2023-05-18T23:59:12.423Z,30.02
